sensor_id;sensor_type;location;lat;lon;timestamp;P1;durP1;ratioP1;P2;durP2;ratioP2
23388;SDS011;11867;51.198;11.966;2022-12-17T00:01:05;45.35;;;28.27;;
23388;SDS011;11867;51.198;11.966;2022-12-17T00:02:28;57.92;;;34.42;;
23388;SDS011;11867;51.198;11.966;2022-12-17T00:03:48;56.63;;;35.00;;
23388;SDS011;11867;51.198;11.966;2022-12-17T00:05:08;45.00;;;26.73;;
23388;SDS011;11867;51.198;11.966;2022-12-17T00:06:29;51.88;;;27.95;;
23388;SDS011;11867;51.198;11.966;2022-12-17T00:07:56;46.78;;;28.67;;
23388;SDS011;11867;51.198;11.966;2022-12-17T00:09:17;60.70;;;36.20;;
23388;SDS011;11867;51.198;11.966;2022-12-17T00:10:37;46.30;;;29.85;;
23388;SDS011;11867;51.198;11.966;2022-12-17T00:11:58;49.30;;;27.73;;
23388;SDS011;11867;51.198;11.966;2022-12-17T00:13:18;47.35;;;28.25;;
23388;SDS011;11867;51.198;11.966;2022-12-17T00:14:39;59.13;;;34.72;;
23388;SDS011;11867;51.198;11.966;2022-12-17T00:16:00;50.03;;;28.05;;
23388;SDS011;11867;51.198;11.966;2022-12-17T00:17:24;45.10;;;26.88;;
23388;SDS011;11867;51.198;11.966;2022-12-17T00:18:44;59.95;;;33.88;;
23388;SDS011;11867;51.198;11.966;2022-12-17T00:20:05;43.50;;;26.45;;
23388;SDS011;11867;51.198;11.966;2022-12-17T00:21:26;58.80;;;34.03;;
23388;SDS011;11867;51.198;11.966;2022-12-17T00:22:47;48.05;;;29.23;;
23388;SDS011;11867;51.198;11.966;2022-12-17T00:24:15;58.40;;;33.53;;
23388;SDS011;11867;51.198;11.966;2022-12-17T00:25:36;43.42;;;27.15;;
23388;SDS011;11867;51.198;11.966;2022-12-17T00:26:56;44.08;;;26.98;;
23388;SDS011;11867;51.198;11.966;2022-12-17T00:28:17;47.35;;;28.10;;
23388;SDS011;11867;51.198;11.966;2022-12-17T00:29:37;48.17;;;27.92;;
23388;SDS011;11867;51.198;11.966;2022-12-17T00:30:57;46.95;;;27.40;;
23388;SDS011;11867;51.198;11.966;2022-12-17T00:32:18;42.42;;;25.90;;
23388;SDS011;11867;51.198;11.966;2022-12-17T00:33:39;46.20;;;27.33;;
23388;SDS011;11867;51.198;11.966;2022-12-17T00:34:59;53.70;;;32.53;;
23388;SDS011;11867;51.198;11.966;2022-12-17T00:36:21;44.22;;;26.13;;
23388;SDS011;11867;51.198;11.966;2022-12-17T00:37:44;59.33;;;35.22;;
23388;SDS011;11867;51.198;11.966;2022-12-17T00:39:04;62.10;;;35.40;;
23388;SDS011;11867;51.198;11.966;2022-12-17T00:40:24;46.13;;;26.75;;
23388;SDS011;11867;51.198;11.966;2022-12-17T00:41:46;55.80;;;34.30;;
23388;SDS011;11867;51.198;11.966;2022-12-17T00:43:18;59.33;;;34.22;;
23388;SDS011;11867;51.198;11.966;2022-12-17T00:44:40;55.88;;;33.10;;
23388;SDS011;11867;51.198;11.966;2022-12-17T00:46:00;58.75;;;35.03;;
23388;SDS011;11867;51.198;11.966;2022-12-17T00:47:20;48.33;;;26.73;;
23388;SDS011;11867;51.198;11.966;2022-12-17T00:48:42;44.55;;;25.75;;
23388;SDS011;11867;51.198;11.966;2022-12-17T00:50:03;59.33;;;34.20;;
23388;SDS011;11867;51.198;11.966;2022-12-17T00:51:24;59.55;;;33.58;;
23388;SDS011;11867;51.198;11.966;2022-12-17T00:54:07;55.90;;;32.40;;
23388;SDS011;11867;51.198;11.966;2022-12-17T00:55:28;49.80;;;27.35;;
23388;SDS011;11867;51.198;11.966;2022-12-17T00:56:48;48.22;;;27.25;;
23388;SDS011;11867;51.198;11.966;2022-12-17T00:58:10;58.85;;;34.50;;
23388;SDS011;11867;51.198;11.966;2022-12-17T00:59:30;42.47;;;27.55;;
23388;SDS011;11867;51.198;11.966;2022-12-17T01:00:50;44.25;;;27.40;;
23388;SDS011;11867;51.198;11.966;2022-12-17T01:02:11;48.53;;;27.52;;
23388;SDS011;11867;51.198;11.966;2022-12-17T01:03:31;49.28;;;27.58;;
23388;SDS011;11867;51.198;11.966;2022-12-17T01:04:53;45.70;;;27.35;;
23388;SDS011;11867;51.198;11.966;2022-12-17T01:06:13;60.28;;;35.33;;
23388;SDS011;11867;51.198;11.966;2022-12-17T01:07:33;60.65;;;33.58;;
23388;SDS011;11867;51.198;11.966;2022-12-17T01:08:56;61.47;;;35.05;;
23388;SDS011;11867;51.198;11.966;2022-12-17T01:10:16;42.65;;;27.40;;
23388;SDS011;11867;51.198;11.966;2022-12-17T01:11:37;46.78;;;27.67;;
23388;SDS011;11867;51.198;11.966;2022-12-17T01:12:57;49.00;;;27.30;;
23388;SDS011;11867;51.198;11.966;2022-12-17T01:14:18;42.78;;;27.25;;
23388;SDS011;11867;51.198;11.966;2022-12-17T01:15:38;43.58;;;26.08;;
23388;SDS011;11867;51.198;11.966;2022-12-17T01:16:59;44.72;;;25.83;;
23388;SDS011;11867;51.198;11.966;2022-12-17T01:18:21;59.33;;;35.10;;
23388;SDS011;11867;51.198;11.966;2022-12-17T01:19:47;56.53;;;35.33;;
23388;SDS011;11867;51.198;11.966;2022-12-17T01:21:09;43.55;;;26.88;;
23388;SDS011;11867;51.198;11.966;2022-12-17T01:22:29;59.72;;;35.65;;
23388;SDS011;11867;51.198;11.966;2022-12-17T01:23:49;48.80;;;27.67;;
23388;SDS011;11867;51.198;11.966;2022-12-17T01:25:10;44.10;;;26.50;;
23388;SDS011;11867;51.198;11.966;2022-12-17T01:26:33;58.03;;;34.35;;
23388;SDS011;11867;51.198;11.966;2022-12-17T01:27:56;61.42;;;35.10;;
23388;SDS011;11867;51.198;11.966;2022-12-17T01:29:19;46.03;;;27.20;;
23388;SDS011;11867;51.198;11.966;2022-12-17T01:30:39;54.00;;;34.05;;
23388;SDS011;11867;51.198;11.966;2022-12-17T01:31:59;52.17;;;27.40;;
23388;SDS011;11867;51.198;11.966;2022-12-17T01:33:22;59.83;;;32.95;;
23388;SDS011;11867;51.198;11.966;2022-12-17T01:34:42;43.03;;;25.77;;
23388;SDS011;11867;51.198;11.966;2022-12-17T01:36:02;45.90;;;25.90;;
23388;SDS011;11867;51.198;11.966;2022-12-17T01:37:24;47.67;;;26.08;;
23388;SDS011;11867;51.198;11.966;2022-12-17T01:38:45;58.53;;;34.50;;
23388;SDS011;11867;51.198;11.966;2022-12-17T01:40:05;42.75;;;25.00;;
23388;SDS011;11867;51.198;11.966;2022-12-17T01:41:27;56.33;;;33.72;;
23388;SDS011;11867;51.198;11.966;2022-12-17T01:42:48;45.65;;;27.67;;
23388;SDS011;11867;51.198;11.966;2022-12-17T01:46:07;59.08;;;32.85;;
23388;SDS011;11867;51.198;11.966;2022-12-17T01:47:28;41.83;;;25.13;;
23388;SDS011;11867;51.198;11.966;2022-12-17T01:48:51;55.63;;;32.47;;
23388;SDS011;11867;51.198;11.966;2022-12-17T01:50:12;38.67;;;24.08;;
23388;SDS011;11867;51.198;11.966;2022-12-17T01:51:32;43.30;;;25.15;;
23388;SDS011;11867;51.198;11.966;2022-12-17T01:52:56;60.95;;;32.83;;
23388;SDS011;11867;51.198;11.966;2022-12-17T01:54:20;55.40;;;31.98;;
23388;SDS011;11867;51.198;11.966;2022-12-17T01:57:01;49.20;;;30.98;;
23388;SDS011;11867;51.198;11.966;2022-12-17T01:58:28;55.75;;;32.28;;
23388;SDS011;11867;51.198;11.966;2022-12-17T01:59:52;46.67;;;25.30;;
23388;SDS011;11867;51.198;11.966;2022-12-17T02:01:15;56.08;;;32.33;;
23388;SDS011;11867;51.198;11.966;2022-12-17T02:03:57;52.47;;;31.15;;
23388;SDS011;11867;51.198;11.966;2022-12-17T02:05:30;53.95;;;32.03;;
23388;SDS011;11867;51.198;11.966;2022-12-17T02:07:02;52.00;;;31.35;;
23388;SDS011;11867;51.198;11.966;2022-12-17T02:08:38;58.45;;;32.72;;
23388;SDS011;11867;51.198;11.966;2022-12-17T02:10:18;58.53;;;32.63;;
23388;SDS011;11867;51.198;11.966;2022-12-17T02:11:46;56.10;;;32.95;;
23388;SDS011;11867;51.198;11.966;2022-12-17T02:13:15;47.63;;;26.48;;
23388;SDS011;11867;51.198;11.966;2022-12-17T02:14:40;49.63;;;31.15;;
23388;SDS011;11867;51.198;11.966;2022-12-17T02:16:19;54.55;;;31.88;;
23388;SDS011;11867;51.198;11.966;2022-12-17T02:17:46;54.30;;;31.63;;
23388;SDS011;11867;51.198;11.966;2022-12-17T02:19:13;57.40;;;31.80;;
23388;SDS011;11867;51.198;11.966;2022-12-17T02:20:48;50.00;;;28.98;;
23388;SDS011;11867;51.198;11.966;2022-12-17T02:22:20;49.95;;;30.20;;
23388;SDS011;11867;51.198;11.966;2022-12-17T02:23:49;54.38;;;32.08;;
23388;SDS011;11867;51.198;11.966;2022-12-17T02:25:20;53.15;;;30.52;;
23388;SDS011;11867;51.198;11.966;2022-12-17T02:26:48;54.53;;;31.08;;
23388;SDS011;11867;51.198;11.966;2022-12-17T02:28:11;55.50;;;29.90;;
23388;SDS011;11867;51.198;11.966;2022-12-17T02:29:34;41.38;;;24.52;;
23388;SDS011;11867;51.198;11.966;2022-12-17T02:30:58;50.60;;;31.50;;
23388;SDS011;11867;51.198;11.966;2022-12-17T02:32:18;43.47;;;25.35;;
23388;SDS011;11867;51.198;11.966;2022-12-17T02:33:58;53.53;;;30.98;;
23388;SDS011;11867;51.198;11.966;2022-12-17T02:35:21;56.15;;;31.10;;
23388;SDS011;11867;51.198;11.966;2022-12-17T02:36:46;54.47;;;31.38;;
23388;SDS011;11867;51.198;11.966;2022-12-17T02:38:15;47.28;;;27.40;;
23388;SDS011;11867;51.198;11.966;2022-12-17T02:39:37;42.20;;;23.85;;
23388;SDS011;11867;51.198;11.966;2022-12-17T02:41:07;54.53;;;31.42;;
23388;SDS011;11867;51.198;11.966;2022-12-17T02:42:31;46.85;;;29.98;;
23388;SDS011;11867;51.198;11.966;2022-12-17T02:43:52;51.83;;;31.27;;
23388;SDS011;11867;51.198;11.966;2022-12-17T02:45:14;55.35;;;30.60;;
23388;SDS011;11867;51.198;11.966;2022-12-17T02:46:36;48.05;;;30.35;;
23388;SDS011;11867;51.198;11.966;2022-12-17T02:47:59;54.40;;;32.10;;
23388;SDS011;11867;51.198;11.966;2022-12-17T02:49:20;53.53;;;31.00;;
23388;SDS011;11867;51.198;11.966;2022-12-17T02:50:41;42.97;;;24.65;;
23388;SDS011;11867;51.198;11.966;2022-12-17T02:52:02;41.47;;;24.17;;
23388;SDS011;11867;51.198;11.966;2022-12-17T02:54:41;53.58;;;30.92;;
23388;SDS011;11867;51.198;11.966;2022-12-17T02:56:09;56.10;;;31.48;;
23388;SDS011;11867;51.198;11.966;2022-12-17T02:57:38;40.92;;;24.27;;
23388;SDS011;11867;51.198;11.966;2022-12-17T02:58:58;55.25;;;30.58;;
23388;SDS011;11867;51.198;11.966;2022-12-17T03:00:18;44.22;;;25.23;;
23388;SDS011;11867;51.198;11.966;2022-12-17T03:01:39;44.83;;;25.85;;
23388;SDS011;11867;51.198;11.966;2022-12-17T03:03:00;41.80;;;24.30;;
23388;SDS011;11867;51.198;11.966;2022-12-17T03:04:19;51.28;;;30.80;;
23388;SDS011;11867;51.198;11.966;2022-12-17T03:05:43;57.58;;;31.15;;
23388;SDS011;11867;51.198;11.966;2022-12-17T03:07:03;38.47;;;22.80;;
23388;SDS011;11867;51.198;11.966;2022-12-17T03:08:23;39.13;;;23.15;;
23388;SDS011;11867;51.198;11.966;2022-12-17T03:09:51;50.70;;;29.88;;
23388;SDS011;11867;51.198;11.966;2022-12-17T03:11:11;37.92;;;22.33;;
23388;SDS011;11867;51.198;11.966;2022-12-17T03:12:33;41.40;;;22.48;;
23388;SDS011;11867;51.198;11.966;2022-12-17T03:13:53;45.30;;;25.50;;
23388;SDS011;11867;51.198;11.966;2022-12-17T03:15:14;46.97;;;27.77;;
23388;SDS011;11867;51.198;11.966;2022-12-17T03:16:34;43.78;;;22.67;;
23388;SDS011;11867;51.198;11.966;2022-12-17T03:17:58;36.58;;;21.02;;
23388;SDS011;11867;51.198;11.966;2022-12-17T03:19:18;47.33;;;26.95;;
23388;SDS011;11867;51.198;11.966;2022-12-17T03:20:41;47.47;;;26.85;;
23388;SDS011;11867;51.198;11.966;2022-12-17T03:22:01;36.95;;;20.75;;
23388;SDS011;11867;51.198;11.966;2022-12-17T03:23:21;38.20;;;20.83;;
23388;SDS011;11867;51.198;11.966;2022-12-17T03:24:41;41.03;;;22.33;;
23388;SDS011;11867;51.198;11.966;2022-12-17T03:26:08;43.97;;;25.02;;
23388;SDS011;11867;51.198;11.966;2022-12-17T03:27:29;37.58;;;19.95;;
23388;SDS011;11867;51.198;11.966;2022-12-17T03:28:51;44.25;;;25.08;;
23388;SDS011;11867;51.198;11.966;2022-12-17T03:30:11;45.28;;;24.98;;
23388;SDS011;11867;51.198;11.966;2022-12-17T03:31:36;39.20;;;24.40;;
23388;SDS011;11867;51.198;11.966;2022-12-17T03:32:59;46.00;;;25.23;;
23388;SDS011;11867;51.198;11.966;2022-12-17T03:34:20;33.20;;;19.13;;
23388;SDS011;11867;51.198;11.966;2022-12-17T03:35:40;35.13;;;19.08;;
23388;SDS011;11867;51.198;11.966;2022-12-17T03:37:00;33.88;;;19.80;;
23388;SDS011;11867;51.198;11.966;2022-12-17T03:38:26;45.92;;;24.60;;
23388;SDS011;11867;51.198;11.966;2022-12-17T03:39:47;34.58;;;19.70;;
23388;SDS011;11867;51.198;11.966;2022-12-17T03:41:07;32.72;;;18.90;;
23388;SDS011;11867;51.198;11.966;2022-12-17T03:42:29;31.95;;;19.55;;
23388;SDS011;11867;51.198;11.966;2022-12-17T03:43:55;42.45;;;23.10;;
23388;SDS011;11867;51.198;11.966;2022-12-17T03:45:16;45.00;;;24.90;;
23388;SDS011;11867;51.198;11.966;2022-12-17T03:46:39;41.67;;;23.95;;
23388;SDS011;11867;51.198;11.966;2022-12-17T03:48:03;32.47;;;18.38;;
23388;SDS011;11867;51.198;11.966;2022-12-17T03:49:25;46.72;;;25.13;;
23388;SDS011;11867;51.198;11.966;2022-12-17T03:50:45;42.17;;;23.65;;
23388;SDS011;11867;51.198;11.966;2022-12-17T03:52:08;34.05;;;18.00;;
23388;SDS011;11867;51.198;11.966;2022-12-17T03:53:28;40.13;;;23.08;;
23388;SDS011;11867;51.198;11.966;2022-12-17T03:54:49;36.45;;;19.15;;
23388;SDS011;11867;51.198;11.966;2022-12-17T03:56:11;38.50;;;19.67;;
23388;SDS011;11867;51.198;11.966;2022-12-17T03:57:31;41.42;;;24.17;;
23388;SDS011;11867;51.198;11.966;2022-12-17T03:58:53;37.78;;;19.35;;
23388;SDS011;11867;51.198;11.966;2022-12-17T04:00:14;43.60;;;24.63;;
23388;SDS011;11867;51.198;11.966;2022-12-17T04:01:34;28.83;;;18.38;;
23388;SDS011;11867;51.198;11.966;2022-12-17T04:02:55;33.78;;;18.55;;
23388;SDS011;11867;51.198;11.966;2022-12-17T04:04:16;34.00;;;19.42;;
23388;SDS011;11867;51.198;11.966;2022-12-17T04:05:36;28.02;;;18.15;;
23388;SDS011;11867;51.198;11.966;2022-12-17T04:06:56;38.78;;;20.10;;
23388;SDS011;11867;51.198;11.966;2022-12-17T04:08:16;34.50;;;19.85;;
23388;SDS011;11867;51.198;11.966;2022-12-17T04:09:36;39.03;;;18.77;;
23388;SDS011;11867;51.198;11.966;2022-12-17T04:10:57;30.27;;;17.95;;
23388;SDS011;11867;51.198;11.966;2022-12-17T04:12:17;29.88;;;17.42;;
23388;SDS011;11867;51.198;11.966;2022-12-17T04:13:37;35.95;;;20.10;;
23388;SDS011;11867;51.198;11.966;2022-12-17T04:15:00;40.30;;;23.20;;
23388;SDS011;11867;51.198;11.966;2022-12-17T04:16:22;39.55;;;22.65;;
23388;SDS011;11867;51.198;11.966;2022-12-17T04:17:42;33.88;;;17.60;;
23388;SDS011;11867;51.198;11.966;2022-12-17T04:19:02;33.70;;;18.75;;
23388;SDS011;11867;51.198;11.966;2022-12-17T04:20:21;41.97;;;22.02;;
23388;SDS011;11867;51.198;11.966;2022-12-17T04:21:42;34.33;;;17.80;;
23388;SDS011;11867;51.198;11.966;2022-12-17T04:23:02;33.85;;;17.15;;
23388;SDS011;11867;51.198;11.966;2022-12-17T04:24:23;27.05;;;15.13;;
23388;SDS011;11867;51.198;11.966;2022-12-17T04:25:43;29.70;;;17.52;;
23388;SDS011;11867;51.198;11.966;2022-12-17T04:27:03;29.90;;;17.95;;
23388;SDS011;11867;51.198;11.966;2022-12-17T04:28:23;34.65;;;17.10;;
23388;SDS011;11867;51.198;11.966;2022-12-17T04:29:43;32.38;;;16.90;;
23388;SDS011;11867;51.198;11.966;2022-12-17T04:31:05;31.00;;;17.10;;
23388;SDS011;11867;51.198;11.966;2022-12-17T04:32:25;37.38;;;21.35;;
23388;SDS011;11867;51.198;11.966;2022-12-17T04:33:45;35.75;;;16.67;;
23388;SDS011;11867;51.198;11.966;2022-12-17T04:35:06;32.95;;;18.13;;
23388;SDS011;11867;51.198;11.966;2022-12-17T04:36:26;30.40;;;17.30;;
23388;SDS011;11867;51.198;11.966;2022-12-17T04:37:46;32.40;;;18.08;;
23388;SDS011;11867;51.198;11.966;2022-12-17T04:39:07;30.27;;;16.80;;
23388;SDS011;11867;51.198;11.966;2022-12-17T04:40:27;31.42;;;17.38;;
23388;SDS011;11867;51.198;11.966;2022-12-17T04:41:47;31.45;;;18.25;;
23388;SDS011;11867;51.198;11.966;2022-12-17T04:43:08;33.17;;;18.00;;
23388;SDS011;11867;51.198;11.966;2022-12-17T04:44:30;44.15;;;22.83;;
23388;SDS011;11867;51.198;11.966;2022-12-17T04:45:55;48.10;;;23.55;;
23388;SDS011;11867;51.198;11.966;2022-12-17T04:47:18;43.75;;;22.88;;
23388;SDS011;11867;51.198;11.966;2022-12-17T04:48:38;43.53;;;22.38;;
23388;SDS011;11867;51.198;11.966;2022-12-17T04:50:01;40.40;;;23.50;;
23388;SDS011;11867;51.198;11.966;2022-12-17T04:51:21;29.55;;;17.70;;
23388;SDS011;11867;51.198;11.966;2022-12-17T04:52:42;33.03;;;17.67;;
23388;SDS011;11867;51.198;11.966;2022-12-17T04:54:02;35.42;;;17.90;;
23388;SDS011;11867;51.198;11.966;2022-12-17T04:55:23;31.05;;;17.73;;
23388;SDS011;11867;51.198;11.966;2022-12-17T04:56:43;31.17;;;16.88;;
23388;SDS011;11867;51.198;11.966;2022-12-17T04:58:03;35.80;;;18.10;;
23388;SDS011;11867;51.198;11.966;2022-12-17T04:59:23;30.08;;;16.95;;
23388;SDS011;11867;51.198;11.966;2022-12-17T05:00:43;32.50;;;17.17;;
23388;SDS011;11867;51.198;11.966;2022-12-17T05:02:04;31.10;;;17.88;;
23388;SDS011;11867;51.198;11.966;2022-12-17T05:03:31;39.05;;;22.50;;
23388;SDS011;11867;51.198;11.966;2022-12-17T05:04:52;43.13;;;22.83;;
23388;SDS011;11867;51.198;11.966;2022-12-17T05:06:12;38.90;;;18.90;;
23388;SDS011;11867;51.198;11.966;2022-12-17T05:07:32;32.70;;;17.15;;
23388;SDS011;11867;51.198;11.966;2022-12-17T05:08:52;34.67;;;18.20;;
23388;SDS011;11867;51.198;11.966;2022-12-17T05:10:13;36.65;;;19.02;;
23388;SDS011;11867;51.198;11.966;2022-12-17T05:11:33;34.83;;;17.83;;
23388;SDS011;11867;51.198;11.966;2022-12-17T05:12:56;35.50;;;18.88;;
23388;SDS011;11867;51.198;11.966;2022-12-17T05:14:17;43.17;;;23.52;;
23388;SDS011;11867;51.198;11.966;2022-12-17T05:15:37;37.83;;;18.67;;
23388;SDS011;11867;51.198;11.966;2022-12-17T05:16:58;36.85;;;19.10;;
23388;SDS011;11867;51.198;11.966;2022-12-17T05:18:18;29.60;;;17.38;;
23388;SDS011;11867;51.198;11.966;2022-12-17T05:19:40;31.10;;;17.63;;
23388;SDS011;11867;51.198;11.966;2022-12-17T05:21:00;44.33;;;23.00;;
23388;SDS011;11867;51.198;11.966;2022-12-17T05:22:20;36.65;;;18.27;;
23388;SDS011;11867;51.198;11.966;2022-12-17T05:23:48;45.15;;;23.30;;
23388;SDS011;11867;51.198;11.966;2022-12-17T05:25:08;35.22;;;20.40;;
23388;SDS011;11867;51.198;11.966;2022-12-17T05:26:28;33.30;;;18.00;;
23388;SDS011;11867;51.198;11.966;2022-12-17T05:27:49;48.10;;;24.50;;
23388;SDS011;11867;51.198;11.966;2022-12-17T05:29:10;43.42;;;23.25;;
23388;SDS011;11867;51.198;11.966;2022-12-17T05:30:30;33.90;;;18.95;;
23388;SDS011;11867;51.198;11.966;2022-12-17T05:31:51;34.17;;;19.02;;
23388;SDS011;11867;51.198;11.966;2022-12-17T05:33:11;33.67;;;19.63;;
23388;SDS011;11867;51.198;11.966;2022-12-17T05:34:32;38.08;;;20.63;;
23388;SDS011;11867;51.198;11.966;2022-12-17T05:35:59;45.80;;;23.63;;
23388;SDS011;11867;51.198;11.966;2022-12-17T05:37:19;49.97;;;25.40;;
23388;SDS011;11867;51.198;11.966;2022-12-17T05:38:40;40.53;;;21.40;;
23388;SDS011;11867;51.198;11.966;2022-12-17T05:40:00;40.35;;;21.30;;
23388;SDS011;11867;51.198;11.966;2022-12-17T05:41:20;43.17;;;21.58;;
23388;SDS011;11867;51.198;11.966;2022-12-17T05:42:52;49.60;;;25.58;;
23388;SDS011;11867;51.198;11.966;2022-12-17T05:44:13;34.40;;;19.60;;
23388;SDS011;11867;51.198;11.966;2022-12-17T05:45:33;41.85;;;20.42;;
23388;SDS011;11867;51.198;11.966;2022-12-17T05:46:53;35.45;;;19.95;;
23388;SDS011;11867;51.198;11.966;2022-12-17T05:48:13;37.70;;;20.10;;
23388;SDS011;11867;51.198;11.966;2022-12-17T05:49:40;40.03;;;19.90;;
23388;SDS011;11867;51.198;11.966;2022-12-17T05:51:01;49.92;;;25.95;;
23388;SDS011;11867;51.198;11.966;2022-12-17T05:52:21;46.15;;;25.30;;
23388;SDS011;11867;51.198;11.966;2022-12-17T05:53:41;49.53;;;26.63;;
23388;SDS011;11867;51.198;11.966;2022-12-17T05:55:03;48.78;;;24.83;;
23388;SDS011;11867;51.198;11.966;2022-12-17T05:56:27;53.13;;;26.02;;
23388;SDS011;11867;51.198;11.966;2022-12-17T05:57:47;38.63;;;20.67;;
23388;SDS011;11867;51.198;11.966;2022-12-17T05:59:08;40.53;;;20.10;;
23388;SDS011;11867;51.198;11.966;2022-12-17T06:00:28;41.50;;;20.50;;
23388;SDS011;11867;51.198;11.966;2022-12-17T06:01:48;43.17;;;20.23;;
23388;SDS011;11867;51.198;11.966;2022-12-17T06:03:08;44.95;;;20.13;;
23388;SDS011;11867;51.198;11.966;2022-12-17T06:04:29;41.78;;;21.50;;
23388;SDS011;11867;51.198;11.966;2022-12-17T06:05:52;35.47;;;19.77;;
23388;SDS011;11867;51.198;11.966;2022-12-17T06:07:14;49.90;;;25.27;;
23388;SDS011;11867;51.198;11.966;2022-12-17T06:08:46;46.25;;;25.42;;
23388;SDS011;11867;51.198;11.966;2022-12-17T06:10:06;37.15;;;18.73;;
23388;SDS011;11867;51.198;11.966;2022-12-17T06:11:27;39.92;;;23.48;;
23388;SDS011;11867;51.198;11.966;2022-12-17T06:12:53;38.25;;;19.45;;
23388;SDS011;11867;51.198;11.966;2022-12-17T06:14:14;44.78;;;23.85;;
23388;SDS011;11867;51.198;11.966;2022-12-17T06:15:34;33.10;;;18.23;;
23388;SDS011;11867;51.198;11.966;2022-12-17T06:16:57;49.05;;;24.52;;
23388;SDS011;11867;51.198;11.966;2022-12-17T06:18:20;47.42;;;24.13;;
23388;SDS011;11867;51.198;11.966;2022-12-17T06:19:43;39.83;;;19.80;;
23388;SDS011;11867;51.198;11.966;2022-12-17T06:21:03;51.78;;;25.02;;
23388;SDS011;11867;51.198;11.966;2022-12-17T06:22:25;35.42;;;19.88;;
23388;SDS011;11867;51.198;11.966;2022-12-17T06:23:45;47.15;;;24.30;;
23388;SDS011;11867;51.198;11.966;2022-12-17T06:25:05;37.53;;;20.40;;
23388;SDS011;11867;51.198;11.966;2022-12-17T06:26:28;49.00;;;25.83;;
23388;SDS011;11867;51.198;11.966;2022-12-17T06:27:49;37.22;;;20.50;;
23388;SDS011;11867;51.198;11.966;2022-12-17T06:29:16;45.70;;;24.02;;
23388;SDS011;11867;51.198;11.966;2022-12-17T06:30:37;37.75;;;19.92;;
23388;SDS011;11867;51.198;11.966;2022-12-17T06:31:57;32.55;;;20.05;;
23388;SDS011;11867;51.198;11.966;2022-12-17T06:33:17;37.65;;;19.23;;
23388;SDS011;11867;51.198;11.966;2022-12-17T06:34:38;47.95;;;23.70;;
23388;SDS011;11867;51.198;11.966;2022-12-17T06:35:59;38.30;;;18.42;;
23388;SDS011;11867;51.198;11.966;2022-12-17T06:37:24;41.70;;;24.17;;
23388;SDS011;11867;51.198;11.966;2022-12-17T06:38:45;46.83;;;24.48;;
23388;SDS011;11867;51.198;11.966;2022-12-17T06:40:05;46.00;;;24.73;;
23388;SDS011;11867;51.198;11.966;2022-12-17T06:41:26;57.30;;;26.13;;
23388;SDS011;11867;51.198;11.966;2022-12-17T06:42:50;40.90;;;20.33;;
23388;SDS011;11867;51.198;11.966;2022-12-17T06:44:23;50.97;;;23.92;;
23388;SDS011;11867;51.198;11.966;2022-12-17T06:45:45;42.78;;;23.60;;
23388;SDS011;11867;51.198;11.966;2022-12-17T06:47:05;46.13;;;24.45;;
23388;SDS011;11867;51.198;11.966;2022-12-17T06:48:25;39.38;;;20.00;;
23388;SDS011;11867;51.198;11.966;2022-12-17T06:49:46;34.92;;;18.75;;
23388;SDS011;11867;51.198;11.966;2022-12-17T06:51:06;38.88;;;19.35;;
23388;SDS011;11867;51.198;11.966;2022-12-17T06:52:27;39.38;;;19.25;;
23388;SDS011;11867;51.198;11.966;2022-12-17T06:53:48;44.10;;;23.30;;
23388;SDS011;11867;51.198;11.966;2022-12-17T06:55:08;37.65;;;18.38;;
23388;SDS011;11867;51.198;11.966;2022-12-17T06:56:28;37.10;;;19.92;;
23388;SDS011;11867;51.198;11.966;2022-12-17T06:57:53;36.28;;;19.27;;
23388;SDS011;11867;51.198;11.966;2022-12-17T06:59:15;46.63;;;24.13;;
23388;SDS011;11867;51.198;11.966;2022-12-17T07:00:35;40.80;;;19.73;;
23388;SDS011;11867;51.198;11.966;2022-12-17T07:01:56;39.92;;;19.67;;
23388;SDS011;11867;51.198;11.966;2022-12-17T07:03:16;38.95;;;19.63;;
23388;SDS011;11867;51.198;11.966;2022-12-17T07:04:37;46.47;;;25.58;;
23388;SDS011;11867;51.198;11.966;2022-12-17T07:05:58;34.45;;;19.30;;
23388;SDS011;11867;51.198;11.966;2022-12-17T07:07:19;45.55;;;24.77;;
23388;SDS011;11867;51.198;11.966;2022-12-17T07:08:41;37.88;;;18.77;;
23388;SDS011;11867;51.198;11.966;2022-12-17T07:10:04;45.78;;;24.98;;
23388;SDS011;11867;51.198;11.966;2022-12-17T07:11:25;42.47;;;23.75;;
23388;SDS011;11867;51.198;11.966;2022-12-17T07:12:45;37.42;;;20.58;;
23388;SDS011;11867;51.198;11.966;2022-12-17T07:14:05;38.22;;;18.98;;
23388;SDS011;11867;51.198;11.966;2022-12-17T07:15:26;37.92;;;20.02;;
23388;SDS011;11867;51.198;11.966;2022-12-17T07:16:46;39.13;;;20.73;;
23388;SDS011;11867;51.198;11.966;2022-12-17T07:18:07;36.53;;;18.38;;
23388;SDS011;11867;51.198;11.966;2022-12-17T07:19:27;35.13;;;18.95;;
23388;SDS011;11867;51.198;11.966;2022-12-17T07:20:47;40.33;;;20.48;;
23388;SDS011;11867;51.198;11.966;2022-12-17T07:22:08;35.53;;;19.15;;
23388;SDS011;11867;51.198;11.966;2022-12-17T07:23:28;36.10;;;19.45;;
23388;SDS011;11867;51.198;11.966;2022-12-17T07:24:52;43.17;;;24.50;;
23388;SDS011;11867;51.198;11.966;2022-12-17T07:26:15;51.70;;;25.30;;
23388;SDS011;11867;51.198;11.966;2022-12-17T07:27:35;50.80;;;25.02;;
23388;SDS011;11867;51.198;11.966;2022-12-17T07:28:55;38.13;;;19.63;;
23388;SDS011;11867;51.198;11.966;2022-12-17T07:30:16;39.58;;;18.88;;
23388;SDS011;11867;51.198;11.966;2022-12-17T07:31:36;38.53;;;20.35;;
23388;SDS011;11867;51.198;11.966;2022-12-17T07:35:38;47.22;;;23.38;;
23388;SDS011;11867;51.198;11.966;2022-12-17T07:36:59;37.70;;;19.42;;
23388;SDS011;11867;51.198;11.966;2022-12-17T07:38:21;48.65;;;25.13;;
23388;SDS011;11867;51.198;11.966;2022-12-17T07:39:41;45.17;;;24.33;;
23388;SDS011;11867;51.198;11.966;2022-12-17T07:41:03;38.28;;;19.85;;
23388;SDS011;11867;51.198;11.966;2022-12-17T07:42:23;45.55;;;25.45;;
23388;SDS011;11867;51.198;11.966;2022-12-17T07:43:43;40.08;;;19.63;;
23388;SDS011;11867;51.198;11.966;2022-12-17T07:45:04;34.35;;;18.88;;
23388;SDS011;11867;51.198;11.966;2022-12-17T07:46:26;47.15;;;25.98;;
23388;SDS011;11867;51.198;11.966;2022-12-17T07:47:50;35.60;;;20.15;;
23388;SDS011;11867;51.198;11.966;2022-12-17T07:49:12;45.92;;;24.33;;
23388;SDS011;11867;51.198;11.966;2022-12-17T07:50:36;49.05;;;25.50;;
23388;SDS011;11867;51.198;11.966;2022-12-17T07:52:01;48.85;;;23.77;;
23388;SDS011;11867;51.198;11.966;2022-12-17T07:53:22;42.13;;;20.23;;
23388;SDS011;11867;51.198;11.966;2022-12-17T07:54:42;36.97;;;19.67;;
23388;SDS011;11867;51.198;11.966;2022-12-17T07:56:04;37.38;;;20.05;;
23388;SDS011;11867;51.198;11.966;2022-12-17T07:57:25;56.22;;;26.70;;
23388;SDS011;11867;51.198;11.966;2022-12-17T07:58:45;47.35;;;23.25;;
23388;SDS011;11867;51.198;11.966;2022-12-17T08:00:06;39.93;;;21.77;;
23388;SDS011;11867;51.198;11.966;2022-12-17T08:01:27;49.80;;;28.90;;
23388;SDS011;11867;51.198;11.966;2022-12-17T08:04:08;39.63;;;21.73;;